createdAt,value
2023-03-02T00:00:41.581Z,74.858
2023-03-02T00:01:42.229Z,74.262
2023-03-02T00:02:42.135Z,73.664
2023-03-02T00:03:42.061Z,73.686
2023-03-02T00:04:41.922Z,73.845
2023-03-02T00:05:41.509Z,73.934
2023-03-02T00:06:42.111Z,74.051
2023-03-02T00:07:41.797Z,74.014
2023-03-02T00:08:41.392Z,74.087
2023-03-02T00:09:42.105Z,74.604
2023-03-02T00:10:41.824Z,74.926
2023-03-02T00:11:41.470Z,75.224
2023-03-02T00:12:42.117Z,75.165
2023-03-02T00:13:41.736Z,76.002
2023-03-02T00:14:41.513Z,75.861
2023-03-02T00:15:42.282Z,76.305
2023-03-02T00:16:42.187Z,76.527
2023-03-02T00:17:41.773Z,76.700
2023-03-02T00:18:41.368Z,76.864
2023-03-02T00:19:42.045Z,76.710
2023-03-02T00:20:41.684Z,77.684
2023-03-02T00:21:42.325Z,77.602
2023-03-02T00:22:41.912Z,77.745
2023-03-02T00:23:41.487Z,77.566
2023-03-02T00:24:42.180Z,77.848
2023-03-02T00:25:41.811Z,78.653
2023-03-02T00:26:41.421Z,78.562
2023-03-02T00:27:42.053Z,78.224
2023-03-02T00:28:41.654Z,78.966
2023-03-02T00:29:42.327Z,78.926
2023-03-02T00:30:41.981Z,78.703
2023-03-02T00:31:41.888Z,78.754
2023-03-02T00:32:41.762Z,78.684
2023-03-02T00:33:41.369Z,78.560
2023-03-02T00:34:42.158Z,79.170
2023-03-02T00:35:41.923Z,78.697
2023-03-02T00:36:42.608Z,78.499
2023-03-02T00:37:41.404Z,78.501
2023-03-02T00:38:42.049Z,78.741
2023-03-02T00:39:41.784Z,78.716
2023-03-02T00:40:41.479Z,78.609
2023-03-02T00:41:42.337Z,78.697
2023-03-02T00:42:42.047Z,78.993
2023-03-02T00:43:41.627Z,79.225
2023-03-02T00:44:42.314Z,79.132
2023-03-02T00:45:41.971Z,79.452
2023-03-02T00:46:41.918Z,79.332
2023-03-02T00:47:43.239Z,79.573
2023-03-02T00:48:41.820Z,79.679
2023-03-02T00:49:41.515Z,79.540
2023-03-02T00:50:42.211Z,80.282
2023-03-02T00:51:41.892Z,80.240
2023-03-02T00:52:41.509Z,80.463
2023-03-02T00:53:42.176Z,80.292
2023-03-02T00:54:41.792Z,80.662
2023-03-02T00:55:41.465Z,80.158
2023-03-02T00:56:41.405Z,79.882
2023-03-02T00:57:41.973Z,80.027
2023-03-02T00:58:41.628Z,79.870
2023-03-02T00:59:42.317Z,79.187
2023-03-02T01:00:41.930Z,79.363
2023-03-02T01:01:41.653Z,79.031
2023-03-02T01:02:41.746Z,78.815
2023-03-02T01:03:41.758Z,77.902
2023-03-02T01:04:41.469Z,78.180
2023-03-02T01:05:42.061Z,78.068
2023-03-02T01:06:41.737Z,77.373
2023-03-02T01:07:41.361Z,77.747
2023-03-02T01:08:42.043Z,76.935
2023-03-02T01:09:41.756Z,77.188
2023-03-02T01:10:41.371Z,77.125
2023-03-02T01:11:41.995Z,77.473
2023-03-02T01:12:41.624Z,76.439
2023-03-02T01:13:42.312Z,75.851
2023-03-02T01:14:41.990Z,75.991
2023-03-02T01:15:41.603Z,75.565
2023-03-02T01:16:42.388Z,75.731
2023-03-02T01:17:41.964Z,75.912
2023-03-02T01:18:41.688Z,76.004
2023-03-02T01:19:41.420Z,76.376
2023-03-02T01:20:42.103Z,76.811
2023-03-02T01:21:41.699Z,77.658
2023-03-02T01:22:42.320Z,78.045
2023-03-02T01:23:41.972Z,78.133
2023-03-02T01:24:41.599Z,78.489
2023-03-02T01:25:42.196Z,78.497
2023-03-02T01:26:41.804Z,78.421
2023-03-02T01:27:41.501Z,78.297
2023-03-02T01:28:42.093Z,78.514
2023-03-02T01:29:41.777Z,78.127
2023-03-02T01:30:41.451Z,78.152
2023-03-02T01:31:42.151Z,78.157
2023-03-02T01:32:42.233Z,77.888
2023-03-02T01:33:41.925Z,77.536
2023-03-02T01:34:41.617Z,77.682
2023-03-02T01:35:42.421Z,77.667
2023-03-02T01:36:42.157Z,77.749
2023-03-02T01:37:41.744Z,77.522
2023-03-02T01:38:41.674Z,77.389
2023-03-02T01:39:42.344Z,77.385
2023-03-02T01:40:42.105Z,77.419
2023-03-02T01:41:41.819Z,77.246
2023-03-02T01:42:41.486Z,77.543
2023-03-02T01:43:42.108Z,77.354
2023-03-02T01:44:41.773Z,77.337
2023-03-02T01:45:41.674Z,77.467
2023-03-02T01:46:41.461Z,77.593
2023-03-02T01:47:42.100Z,77.846
2023-03-02T01:48:41.733Z,77.871
2023-03-02T01:49:41.348Z,78.237
2023-03-02T01:50:41.971Z,78.380
2023-03-02T01:51:41.573Z,78.684
2023-03-02T01:52:42.287Z,78.466
2023-03-02T01:53:41.946Z,78.026
2023-03-02T01:54:41.545Z,78.693
2023-03-02T01:55:42.203Z,78.430
2023-03-02T01:56:41.798Z,78.335
2023-03-02T01:57:41.461Z,78.295
2023-03-02T01:58:42.286Z,78.052
2023-03-02T01:59:41.908Z,78.047
2023-03-02T02:00:41.643Z,77.700
2023-03-02T02:01:41.552Z,77.434
2023-03-02T02:02:42.205Z,77.572
2023-03-02T02:03:41.952Z,77.583
2023-03-02T02:04:41.690Z,77.450
2023-03-02T02:05:42.365Z,77.690
2023-03-02T02:06:42.012Z,77.768
2023-03-02T02:07:41.615Z,77.650
2023-03-02T02:08:42.502Z,77.690
2023-03-02T02:09:42.161Z,77.904
2023-03-02T02:10:41.834Z,77.827
2023-03-02T02:12:42.190Z,78.133
2023-03-02T02:13:41.844Z,78.154
2023-03-02T02:14:41.507Z,78.005
2023-03-02T02:15:42.207Z,78.510
2023-03-02T02:16:42.151Z,78.661
2023-03-02T02:17:42.028Z,78.735
2023-03-02T02:18:41.673Z,78.524
2023-03-02T02:19:42.339Z,79.048
2023-03-02T02:20:41.989Z,79.203
2023-03-02T02:21:41.539Z,79.414
2023-03-02T02:22:42.212Z,79.477
2023-03-02T02:23:41.933Z,79.548
2023-03-02T02:24:41.570Z,79.029
2023-03-02T02:25:42.241Z,79.050
2023-03-02T02:27:41.529Z,79.712
2023-03-02T02:28:42.223Z,79.666
2023-03-02T02:29:41.895Z,79.809
2023-03-02T02:30:41.588Z,79.782
2023-03-02T02:31:42.462Z,79.836
2023-03-02T02:32:42.594Z,79.607
2023-03-02T02:33:42.395Z,80.025
2023-03-02T02:34:42.356Z,80.114
2023-03-02T02:35:42.136Z,80.143
2023-03-02T02:36:42.166Z,80.299
2023-03-02T02:37:41.864Z,80.435
2023-03-02T02:38:41.515Z,80.854
2023-03-02T02:39:42.171Z,80.646
2023-03-02T02:40:41.848Z,80.803
2023-03-02T02:41:41.637Z,80.870
2023-03-02T02:42:42.361Z,81.051
2023-03-02T02:43:42.037Z,81.076
2023-03-02T02:44:41.813Z,81.415
2023-03-02T02:45:41.870Z,81.436
2023-03-02T02:46:41.720Z,81.268
2023-03-02T02:47:41.417Z,81.215
2023-03-02T02:48:42.089Z,81.354
2023-03-02T02:49:41.766Z,81.873
2023-03-02T02:50:41.494Z,81.821
2023-03-02T02:51:42.113Z,81.657
2023-03-02T02:52:41.886Z,81.785
2023-03-02T02:53:41.516Z,81.629
2023-03-02T02:54:42.226Z,81.562
2023-03-02T02:55:41.840Z,81.322
2023-03-02T02:56:41.525Z,81.095
2023-03-02T02:57:42.080Z,81.037
2023-03-02T02:58:41.725Z,81.217
2023-03-02T02:59:41.377Z,81.348
2023-03-02T03:00:42.065Z,81.247
2023-03-02T03:01:42.002Z,81.280
2023-03-02T03:02:41.784Z,81.417
2023-03-02T03:03:41.435Z,81.364
2023-03-02T03:04:42.420Z,81.411
2023-03-02T03:05:42.361Z,81.291
2023-03-02T03:06:41.974Z,81.064
2023-03-02T03:07:41.749Z,81.390
2023-03-02T03:08:41.358Z,80.904
2023-03-02T03:09:42.178Z,80.900
2023-03-02T03:10:42.180Z,80.984
2023-03-02T03:11:41.867Z,80.856
2023-03-02T03:12:41.600Z,80.568
2023-03-02T03:13:42.284Z,80.584
2023-03-02T03:14:41.920Z,80.238
2023-03-02T03:15:41.580Z,80.385
2023-03-02T03:16:42.425Z,80.564
2023-03-02T03:17:42.330Z,80.158
2023-03-02T03:18:42.063Z,79.864
2023-03-02T03:19:41.730Z,79.901
2023-03-02T03:21:42.147Z,80.334
2023-03-02T03:22:41.942Z,80.261
2023-03-02T03:23:41.696Z,80.280
2023-03-02T03:24:41.404Z,80.458
2023-03-02T03:25:43.577Z,80.128
2023-03-02T03:26:42.173Z,80.080
2023-03-02T03:27:42.096Z,79.956
2023-03-02T03:28:41.745Z,79.281
2023-03-02T03:29:41.412Z,79.599
2023-03-02T03:30:42.124Z,79.788
2023-03-02T03:31:42.085Z,79.410
2023-03-02T03:32:42.216Z,79.348
2023-03-02T03:33:42.013Z,79.266
2023-03-02T03:34:41.914Z,79.292
2023-03-02T03:35:42.003Z,79.164
2023-03-02T03:36:41.772Z,79.033
2023-03-02T03:37:41.395Z,78.871
2023-03-02T03:38:42.053Z,78.480
2023-03-02T03:39:41.788Z,78.524
2023-03-02T03:41:42.036Z,78.766
2023-03-02T03:42:41.752Z,78.390
2023-03-02T03:43:41.357Z,78.178
2023-03-02T03:44:41.973Z,78.394
2023-03-02T03:46:41.598Z,77.902
2023-03-02T03:47:42.272Z,78.215
2023-03-02T03:48:41.917Z,78.264
2023-03-02T03:49:41.668Z,78.411
2023-03-02T03:52:03.062Z,77.982
2023-03-02T03:52:56.091Z,77.629
2023-03-02T03:53:56.027Z,78.236
2023-03-02T03:54:56.009Z,78.028
2023-03-02T03:55:55.927Z,78.041
2023-03-02T03:56:55.860Z,77.951
2023-03-02T03:57:55.845Z,77.995
2023-03-02T03:58:56.022Z,78.033
2023-03-02T03:59:56.032Z,77.841
2023-03-02T04:00:56.318Z,78.131
2023-03-02T04:01:56.501Z,78.592
2023-03-02T04:02:55.828Z,78.226
2023-03-02T04:03:55.876Z,78.476
2023-03-02T04:04:55.953Z,78.550
2023-03-02T04:05:56.156Z,78.489
2023-03-02T04:06:56.112Z,78.363
2023-03-02T04:07:56.030Z,78.953
2023-03-02T04:08:55.952Z,79.050
2023-03-02T04:09:55.945Z,79.054
2023-03-02T04:10:55.995Z,79.309
2023-03-02T04:11:55.916Z,79.319
2023-03-02T04:12:55.912Z,79.496
2023-03-02T04:13:55.834Z,80.070
2023-03-02T04:14:55.826Z,80.439
2023-03-02T04:15:55.911Z,81.093
2023-03-02T04:16:59.146Z,81.219
2023-03-02T04:17:59.341Z,81.604
2023-03-02T04:18:58.705Z,81.295
2023-03-02T04:19:55.637Z,81.766
2023-03-02T04:20:55.603Z,81.814
2023-03-02T04:21:55.630Z,81.917
2023-03-02T04:22:55.726Z,81.980
2023-03-02T04:23:55.698Z,82.241
2023-03-02T04:24:55.611Z,82.632
2023-03-02T04:25:55.541Z,82.413
2023-03-02T04:26:55.507Z,82.735
2023-03-02T04:27:56.460Z,82.598
2023-03-02T04:28:56.516Z,82.771
2023-03-02T04:29:56.469Z,82.842
2023-03-02T04:30:56.663Z,82.722
2023-03-02T04:31:55.847Z,82.823
2023-03-02T04:32:55.992Z,83.050
2023-03-02T04:33:55.925Z,82.836
2023-03-02T04:34:55.833Z,82.888
2023-03-02T04:35:55.856Z,82.981
2023-03-02T04:36:56.288Z,83.227
2023-03-02T04:37:56.240Z,83.179
2023-03-02T04:38:56.190Z,83.006
2023-03-02T04:39:56.113Z,82.998
2023-03-02T04:40:56.046Z,83.006
2023-03-02T04:41:56.062Z,82.956
2023-03-02T04:42:56.079Z,83.200
2023-03-02T04:43:56.022Z,83.126
2023-03-02T04:44:55.975Z,82.989
2023-03-02T04:45:56.016Z,83.158
2023-03-02T04:46:56.339Z,83.065
2023-03-02T04:47:55.725Z,83.300
2023-03-02T04:48:55.637Z,83.414
2023-03-02T04:49:55.583Z,83.672
2023-03-02T04:50:56.486Z,83.460
2023-03-02T04:51:56.402Z,83.408
2023-03-02T04:52:56.362Z,83.445
2023-03-02T04:53:56.297Z,83.143
2023-03-02T04:54:56.296Z,83.265
2023-03-02T04:55:56.289Z,83.200
2023-03-02T04:56:56.239Z,83.477
2023-03-02T04:57:56.258Z,83.839
2023-03-02T04:58:56.266Z,83.712
2023-03-02T04:59:56.213Z,83.614
2023-03-02T05:00:56.160Z,83.942
2023-03-02T05:01:56.174Z,83.998
2023-03-02T05:02:56.289Z,83.937
2023-03-02T05:03:56.208Z,83.935
2023-03-02T05:04:56.460Z,83.994
2023-03-02T05:05:55.573Z,83.845
2023-03-02T05:06:55.509Z,84.421
2023-03-02T05:07:56.498Z,84.137
2023-03-02T05:08:56.476Z,84.295
2023-03-02T05:09:56.449Z,84.427
2023-03-02T05:10:56.515Z,83.906
2023-03-02T05:11:56.355Z,83.847
2023-03-02T05:12:56.383Z,84.223
2023-03-02T05:13:56.273Z,84.114
2023-03-02T05:14:56.243Z,84.507
2023-03-02T05:15:56.212Z,84.238
2023-03-02T05:16:56.617Z,84.263
2023-03-02T05:17:55.561Z,83.975
2023-03-02T05:18:55.512Z,84.131
2023-03-02T05:19:55.882Z,84.520
2023-03-02T05:20:55.770Z,84.330
2023-03-02T05:21:55.962Z,84.206
2023-03-02T05:22:56.053Z,84.503
2023-03-02T05:23:55.930Z,84.993
2023-03-02T05:24:56.015Z,84.866
2023-03-02T05:25:56.212Z,84.911
2023-03-02T05:26:56.152Z,85.043
2023-03-02T05:27:56.129Z,84.553
2023-03-02T05:28:56.044Z,85.157
2023-03-02T05:29:56.035Z,84.595
2023-03-02T05:30:56.162Z,84.402
2023-03-02T05:31:56.470Z,85.173
2023-03-02T05:33:55.644Z,82.809
2023-03-02T05:34:55.652Z,82.106
2023-03-02T05:35:56.504Z,80.254
2023-03-02T05:36:56.349Z,78.861
2023-03-02T05:37:56.384Z,78.829
2023-03-02T05:38:56.373Z,78.541
2023-03-02T05:39:56.366Z,77.330
2023-03-02T05:40:56.373Z,75.977
2023-03-02T05:41:56.335Z,75.205
2023-03-02T05:43:56.256Z,74.734
2023-03-02T05:44:56.233Z,73.847
2023-03-02T05:45:56.218Z,73.900
2023-03-02T05:46:56.526Z,73.700
2023-03-02T05:48:55.616Z,73.242
2023-03-02T05:49:55.570Z,73.345
2023-03-02T05:50:56.526Z,73.547
2023-03-02T05:51:56.455Z,73.692
2023-03-02T05:52:56.377Z,73.273
2023-03-02T05:53:56.338Z,72.943
2023-03-02T05:54:58.086Z,73.345
2023-03-02T05:55:56.122Z,73.194
2023-03-02T05:56:56.129Z,72.922
2023-03-02T05:57:56.029Z,72.689
2023-03-02T05:58:55.985Z,72.864
2023-03-02T05:59:55.905Z,72.939
2023-03-02T06:00:55.876Z,73.005
2023-03-02T06:01:56.218Z,73.278
2023-03-02T06:02:56.420Z,73.444
2023-03-02T06:03:55.581Z,72.992
2023-03-02T06:05:56.369Z,73.568
2023-03-02T06:06:55.862Z,73.622
2023-03-02T06:07:55.784Z,73.553
2023-03-02T06:08:55.872Z,74.110
2023-03-02T06:10:55.826Z,73.553
2023-03-02T06:11:55.829Z,74.060
2023-03-02T06:12:55.802Z,74.179
2023-03-02T06:13:55.780Z,74.072
2023-03-02T06:15:55.927Z,74.322
2023-03-02T06:16:56.493Z,74.735
2023-03-02T06:17:56.458Z,74.875
2023-03-02T06:18:57.129Z,75.561
2023-03-02T06:19:56.068Z,75.968
2023-03-02T06:20:55.972Z,74.898
2023-03-02T06:21:56.078Z,74.917
2023-03-02T06:22:55.985Z,75.609
2023-03-02T06:23:55.995Z,75.882
2023-03-02T06:24:55.877Z,75.996
2023-03-02T06:25:55.796Z,75.209
2023-03-02T06:26:56.170Z,75.270
2023-03-02T06:27:56.023Z,75.615
2023-03-02T06:29:00.904Z,75.252
2023-03-02T06:29:55.946Z,73.074
2023-03-02T06:30:55.906Z,72.124
2023-03-02T06:32:56.166Z,71.411
2023-03-02T06:33:56.101Z,71.127
2023-03-02T06:34:56.044Z,71.142
2023-03-02T06:35:56.704Z,70.753
2023-03-02T06:37:56.085Z,70.080
2023-03-02T06:38:55.993Z,69.895
2023-03-02T06:39:56.044Z,69.612
2023-03-02T06:40:56.369Z,69.923
2023-03-02T06:42:56.406Z,69.280
2023-03-02T06:43:56.368Z,69.158
2023-03-02T06:44:56.241Z,69.086
2023-03-02T06:45:56.422Z,69.036
2023-03-02T06:46:55.543Z,68.750
2023-03-02T06:47:56.473Z,68.662
2023-03-02T06:48:55.898Z,68.517
2023-03-02T06:49:55.798Z,68.304
2023-03-02T06:50:55.794Z,68.407
2023-03-02T06:51:55.662Z,68.077
2023-03-02T06:52:55.571Z,67.840
2023-03-02T06:53:55.585Z,67.846
2023-03-02T06:54:56.501Z,67.478
2023-03-02T06:55:56.422Z,67.280
2023-03-02T06:56:56.670Z,67.415
2023-03-02T06:57:55.748Z,67.211
2023-03-02T06:58:55.828Z,67.367
2023-03-02T06:59:55.834Z,67.041
2023-03-02T07:00:56.057Z,66.932
2023-03-02T07:01:56.243Z,66.988
2023-03-02T07:02:56.233Z,66.723
2023-03-02T07:03:56.297Z,66.585
2023-03-02T07:04:56.224Z,66.593
2023-03-02T07:05:56.233Z,66.333
2023-03-02T07:06:56.300Z,66.589
2023-03-02T07:07:56.201Z,66.204
2023-03-02T07:08:56.189Z,66.089
2023-03-02T07:09:56.089Z,66.169
2023-03-02T07:10:56.057Z,65.590
2023-03-02T07:11:56.003Z,65.548
2023-03-02T07:12:56.030Z,65.525
2023-03-02T07:13:56.096Z,65.334
2023-03-02T07:14:56.137Z,64.916
2023-03-02T07:15:56.309Z,64.846
2023-03-02T07:16:56.465Z,64.968
2023-03-02T07:17:56.457Z,65.324
2023-03-02T07:18:56.473Z,64.962
2023-03-02T07:19:57.810Z,64.592
2023-03-02T07:20:55.843Z,64.661
2023-03-02T07:21:55.779Z,64.342
2023-03-02T07:22:55.737Z,64.382
2023-03-02T07:24:55.615Z,64.682
2023-03-02T07:25:55.586Z,64.298
2023-03-02T07:26:56.525Z,64.008
2023-03-02T07:27:56.497Z,64.085
2023-03-02T07:28:56.458Z,64.106
2023-03-02T07:29:56.403Z,64.052
2023-03-02T07:30:56.445Z,63.789
2023-03-02T07:31:56.479Z,63.497
2023-03-02T07:32:56.380Z,63.284
2023-03-02T07:33:56.397Z,63.474
2023-03-02T07:34:56.349Z,62.801
2023-03-02T07:35:56.532Z,62.656
2023-03-02T07:36:56.448Z,62.223
2023-03-02T07:37:56.449Z,61.876
2023-03-02T07:38:56.430Z,62.246
2023-03-02T07:39:56.336Z,62.332
2023-03-02T07:40:56.313Z,61.998
2023-03-02T07:41:56.224Z,62.210
2023-03-02T07:42:56.200Z,61.782
2023-03-02T07:43:56.179Z,61.998
2023-03-02T07:44:56.124Z,62.248
2023-03-02T07:46:56.317Z,61.851
2023-03-02T07:47:56.253Z,61.639
2023-03-02T07:48:56.240Z,61.361
2023-03-02T07:49:56.130Z,61.369
2023-03-02T07:51:55.975Z,61.439
2023-03-02T07:52:55.906Z,62.017
2023-03-02T07:53:55.817Z,61.762
2023-03-02T07:54:55.774Z,62.090
2023-03-02T07:55:55.670Z,61.639
2023-03-02T07:56:55.645Z,61.485
2023-03-02T07:57:55.545Z,61.197
2023-03-02T07:58:56.589Z,61.067
2023-03-02T07:59:55.541Z,60.472
2023-03-02T08:00:56.508Z,60.407
2023-03-02T08:01:56.760Z,60.726
2023-03-02T08:02:56.067Z,60.606
2023-03-02T08:03:56.299Z,60.634
2023-03-02T08:04:56.348Z,60.699
2023-03-02T08:06:56.390Z,60.705
2023-03-02T08:07:56.526Z,60.842
2023-03-02T08:08:56.580Z,60.459
2023-03-02T08:09:56.521Z,60.320
2023-03-02T08:11:56.453Z,59.986
2023-03-02T08:12:56.432Z,59.568
2023-03-02T08:13:56.356Z,59.709
2023-03-02T08:14:56.381Z,59.515
2023-03-02T08:15:56.388Z,59.095
2023-03-02T08:16:55.516Z,59.517
2023-03-02T08:17:55.552Z,59.349
2023-03-02T08:18:58.608Z,59.249
2023-03-02T08:19:56.329Z,59.684
2023-03-02T08:20:56.334Z,59.370
2023-03-02T08:21:56.648Z,59.009
2023-03-02T08:22:56.410Z,58.851
2023-03-02T08:23:56.510Z,58.858
2023-03-02T08:24:56.462Z,59.358
2023-03-02T08:25:56.338Z,59.476
2023-03-02T08:26:56.130Z,59.322
2023-03-02T08:27:56.318Z,58.544
2023-03-02T08:28:56.301Z,59.051
2023-03-02T08:29:56.291Z,58.923
2023-03-02T08:30:56.253Z,58.210
2023-03-02T08:31:56.835Z,58.990
2023-03-02T08:32:56.170Z,58.647
2023-03-02T08:33:56.137Z,59.064
2023-03-02T08:34:56.170Z,58.519
2023-03-02T08:35:56.271Z,57.951
2023-03-02T08:36:56.384Z,57.708
2023-03-02T08:37:56.368Z,58.054
2023-03-02T08:38:56.365Z,57.886
2023-03-02T08:39:58.411Z,58.067
2023-03-02T08:40:55.663Z,58.036
2023-03-02T08:41:55.841Z,57.275
2023-03-02T08:42:55.829Z,58.178
2023-03-02T08:43:55.955Z,57.262
2023-03-02T08:44:56.010Z,57.701
2023-03-02T08:45:56.131Z,57.924
2023-03-02T08:46:56.183Z,58.322
2023-03-02T08:47:56.136Z,58.160
2023-03-02T08:48:56.102Z,57.670
2023-03-02T08:49:56.162Z,57.518
2023-03-02T08:50:56.115Z,57.285
2023-03-02T08:51:56.070Z,57.462
2023-03-02T08:52:56.035Z,56.770
2023-03-02T08:53:56.033Z,57.237
2023-03-02T08:54:56.217Z,56.739
2023-03-02T08:55:56.518Z,57.294
2023-03-02T08:56:56.661Z,57.085
2023-03-02T08:57:55.700Z,56.940
2023-03-02T08:58:55.680Z,56.007
2023-03-02T08:59:55.675Z,55.904
2023-03-02T09:00:55.757Z,56.238
2023-03-02T09:01:56.553Z,56.518
2023-03-02T09:02:56.495Z,56.346
2023-03-02T09:03:56.441Z,55.906
2023-03-02T09:04:55.933Z,55.688
2023-03-02T09:05:55.998Z,56.228
2023-03-02T09:06:55.893Z,55.889
2023-03-02T09:07:55.873Z,55.559
2023-03-02T09:08:55.819Z,55.292
2023-03-02T09:09:55.838Z,55.875
2023-03-02T09:10:55.842Z,55.444
2023-03-02T09:11:55.793Z,55.318
2023-03-02T09:12:55.694Z,54.939
2023-03-02T09:13:55.661Z,54.578
2023-03-02T09:14:55.689Z,54.878
2023-03-02T09:15:55.698Z,54.676
2023-03-02T09:16:56.116Z,54.842
2023-03-02T09:17:56.050Z,54.807
2023-03-02T09:18:56.018Z,54.626
2023-03-02T09:19:56.007Z,54.229
2023-03-02T09:20:55.978Z,54.285
2023-03-02T09:21:55.898Z,54.731
2023-03-02T09:22:55.785Z,54.201
2023-03-02T09:23:55.785Z,53.630
2023-03-02T09:24:55.959Z,53.049
2023-03-02T09:25:55.915Z,53.094
2023-03-02T09:26:55.853Z,53.468
2023-03-02T09:27:55.849Z,53.636
2023-03-02T09:28:55.862Z,54.037
2023-03-02T09:29:55.849Z,54.426
2023-03-02T09:30:55.795Z,54.769
2023-03-02T09:31:56.910Z,54.288
2023-03-02T09:32:56.701Z,54.441
2023-03-02T09:33:55.870Z,53.855
2023-03-02T09:34:55.825Z,54.031
2023-03-02T09:35:55.764Z,53.600
2023-03-02T09:36:55.722Z,52.270
2023-03-02T09:37:55.827Z,53.071
2023-03-02T09:38:55.953Z,52.770
2023-03-02T09:39:56.089Z,52.343
2023-03-02T09:40:56.055Z,52.047
2023-03-02T09:41:56.118Z,51.269
2023-03-02T09:43:00.980Z,51.361
2023-03-02T09:43:55.938Z,51.460
2023-03-02T09:44:55.940Z,51.919
2023-03-02T09:45:56.077Z,51.515
2023-03-02T09:46:56.178Z,50.592
2023-03-02T09:47:56.321Z,50.823
2023-03-02T09:48:56.296Z,50.718
2023-03-02T09:49:56.218Z,51.458
2023-03-02T09:50:56.102Z,51.452
2023-03-02T09:51:56.069Z,51.458
2023-03-02T09:52:56.086Z,50.895
2023-03-02T09:53:56.099Z,51.000
2023-03-02T09:54:56.167Z,51.317
2023-03-02T09:55:56.204Z,51.280
2023-03-02T09:56:56.203Z,51.555
2023-03-02T09:57:56.192Z,51.496
2023-03-02T09:58:56.145Z,51.227
2023-03-02T09:59:57.273Z,50.411
2023-03-02T10:00:56.172Z,49.921
2023-03-02T10:01:56.502Z,50.123
2023-03-02T10:02:58.724Z,50.607
2023-03-02T10:03:56.290Z,51.532
2023-03-02T10:04:55.706Z,51.752
2023-03-02T10:05:55.743Z,51.576
2023-03-02T10:06:55.644Z,51.010
2023-03-02T10:07:56.192Z,50.197
2023-03-02T10:08:55.922Z,50.031
2023-03-02T10:09:55.898Z,49.936
2023-03-02T10:10:55.938Z,49.869
2023-03-02T10:11:55.881Z,50.621
2023-03-02T10:12:55.875Z,50.304
2023-03-02T10:13:55.922Z,49.436
2023-03-02T10:14:55.929Z,49.198
2023-03-02T10:15:56.026Z,49.365
2023-03-02T10:16:56.818Z,48.881
2023-03-02T10:17:55.871Z,48.486
2023-03-02T10:18:56.090Z,49.678
2023-03-02T10:19:56.046Z,49.520
2023-03-02T10:20:56.066Z,49.945
2023-03-02T10:21:55.999Z,49.947
2023-03-02T10:22:56.006Z,49.514
2023-03-02T10:23:56.027Z,49.097
2023-03-02T10:24:56.025Z,49.049
2023-03-02T10:25:55.974Z,49.697
2023-03-02T10:26:55.986Z,48.942
2023-03-02T10:27:56.190Z,49.110
2023-03-02T10:28:56.268Z,48.496
2023-03-02T10:29:56.214Z,48.343
2023-03-02T10:30:56.288Z,46.928
2023-03-02T10:31:55.633Z,46.897
2023-03-02T10:32:55.725Z,46.506
2023-03-02T10:33:55.660Z,46.535
2023-03-02T10:34:55.637Z,47.170
2023-03-02T10:35:56.081Z,46.831
2023-03-02T10:36:56.435Z,47.378
2023-03-02T10:37:56.425Z,47.599
2023-03-02T10:38:56.384Z,46.672
2023-03-02T10:39:56.353Z,46.922
2023-03-02T10:40:56.372Z,45.665
2023-03-02T10:41:56.359Z,46.020
2023-03-02T10:42:56.475Z,46.428
2023-03-02T10:43:56.427Z,45.732
2023-03-02T10:45:56.529Z,45.043
2023-03-02T10:46:56.136Z,45.207
2023-03-02T10:47:56.088Z,45.562
2023-03-02T10:49:00.632Z,46.186
2023-03-02T10:49:56.483Z,46.327
2023-03-02T10:50:56.437Z,44.961
2023-03-02T10:51:56.515Z,44.820
2023-03-02T10:53:03.011Z,45.707
2023-03-02T10:53:56.134Z,46.016
2023-03-02T10:55:56.043Z,46.167
2023-03-02T10:56:55.989Z,46.804
2023-03-02T10:57:55.949Z,47.080
2023-03-02T10:58:58.198Z,47.313
2023-03-02T10:59:56.125Z,46.821
2023-03-02T11:00:56.120Z,46.441
2023-03-02T11:01:56.232Z,45.947
2023-03-02T11:02:56.260Z,45.404
2023-03-02T11:03:56.208Z,45.612
2023-03-02T11:04:59.140Z,45.190
2023-03-02T11:05:56.150Z,44.444
2023-03-02T11:06:56.310Z,46.602
2023-03-02T11:07:56.266Z,45.511
2023-03-02T11:08:56.168Z,46.697
2023-03-02T11:09:56.122Z,46.123
2023-03-02T11:11:00.775Z,46.447
2023-03-02T11:11:56.127Z,46.260
2023-03-02T11:12:56.230Z,46.623
2023-03-02T11:13:56.173Z,45.637
2023-03-02T11:14:56.182Z,45.047
2023-03-02T11:15:56.264Z,44.916
2023-03-02T11:16:56.419Z,44.843
2023-03-02T11:17:55.558Z,46.100
2023-03-02T11:18:55.538Z,46.316
2023-03-02T11:19:56.455Z,46.596
2023-03-02T11:20:56.433Z,46.529
2023-03-02T11:21:56.429Z,46.928
2023-03-02T11:22:56.354Z,46.970
2023-03-02T11:23:56.406Z,46.653
2023-03-02T11:24:56.369Z,45.856
2023-03-02T11:25:56.317Z,45.528
2023-03-02T11:26:56.270Z,44.685
2023-03-02T11:27:56.234Z,44.404
2023-03-02T11:28:56.280Z,44.090
2023-03-02T11:29:56.245Z,43.809
2023-03-02T11:30:56.242Z,44.250
2023-03-02T11:31:57.118Z,43.248
2023-03-02T11:32:56.453Z,43.882
2023-03-02T11:33:59.804Z,43.590
2023-03-02T11:35:55.883Z,45.139
2023-03-02T11:36:56.091Z,43.754
2023-03-02T11:37:55.990Z,43.908
2023-03-02T11:38:55.909Z,43.884
2023-03-02T11:40:00.609Z,45.041
2023-03-02T11:40:55.523Z,44.193
2023-03-02T11:41:56.570Z,43.298
2023-03-02T11:43:55.764Z,43.113
2023-03-02T11:44:55.769Z,42.341
2023-03-02T11:45:56.291Z,42.953
2023-03-02T11:48:03.790Z,42.394
2023-03-02T11:48:57.938Z,42.684
2023-03-02T11:49:57.880Z,42.247
2023-03-02T11:50:57.813Z,42.501
2023-03-02T11:52:02.765Z,41.946
2023-03-02T11:52:57.708Z,42.419
2023-03-02T11:53:58.006Z,43.128
2023-03-02T11:54:58.109Z,44.467
2023-03-02T11:55:58.181Z,44.967
2023-03-02T11:56:58.228Z,44.101
2023-03-02T11:57:59.262Z,43.081
2023-03-02T11:58:58.269Z,44.422
2023-03-02T11:59:58.540Z,44.271
2023-03-02T12:00:58.544Z,43.294
2023-03-02T12:01:58.008Z,42.692
2023-03-02T12:02:57.708Z,43.132
2023-03-02T12:03:57.699Z,43.310
2023-03-02T12:04:57.702Z,42.476
2023-03-02T12:05:57.839Z,42.528
2023-03-02T12:06:57.759Z,43.393
2023-03-02T12:07:57.693Z,43.569
2023-03-02T12:08:57.721Z,44.423
2023-03-02T12:09:58.071Z,44.885
2023-03-02T12:10:58.095Z,44.546
2023-03-02T12:11:58.081Z,44.063
2023-03-02T12:12:58.110Z,44.198
2023-03-02T12:13:58.109Z,43.329
2023-03-02T12:14:58.054Z,42.859
2023-03-02T12:15:57.938Z,42.669
2023-03-02T12:17:58.266Z,43.968
2023-03-02T12:18:58.291Z,44.391
2023-03-02T12:19:58.307Z,43.651
2023-03-02T12:20:58.250Z,43.556
2023-03-02T12:21:58.111Z,43.756
2023-03-02T12:22:58.949Z,43.395
2023-03-02T12:23:58.305Z,42.877
2023-03-02T12:24:58.289Z,42.787
2023-03-02T12:25:58.189Z,42.775
2023-03-02T12:26:58.170Z,42.758
2023-03-02T12:27:58.185Z,42.692
2023-03-02T12:28:59.604Z,42.528
2023-03-02T12:29:57.720Z,41.932
2023-03-02T12:30:57.791Z,42.171
2023-03-02T12:31:58.265Z,42.806
2023-03-02T12:32:58.496Z,42.529
2023-03-02T12:33:58.366Z,42.516
2023-03-02T12:34:58.399Z,43.666
2023-03-02T12:35:58.489Z,43.229
2023-03-02T12:36:58.539Z,43.651
2023-03-02T12:37:58.625Z,43.620
2023-03-02T12:38:57.859Z,43.350
2023-03-02T12:39:57.836Z,41.780
2023-03-02T12:40:57.794Z,41.747
2023-03-02T12:41:57.754Z,42.472
2023-03-02T12:42:57.839Z,41.646
2023-03-02T12:44:58.182Z,41.251
2023-03-02T12:45:58.511Z,40.551
2023-03-02T12:46:57.757Z,40.662
2023-03-02T12:47:58.334Z,40.788
2023-03-02T12:48:57.882Z,41.026
2023-03-02T12:49:57.546Z,40.677
2023-03-02T12:50:57.545Z,40.214
2023-03-02T12:51:58.070Z,41.509
2023-03-02T12:52:58.327Z,41.921
2023-03-02T12:53:58.257Z,41.288
2023-03-02T12:54:58.316Z,40.752
2023-03-02T12:55:58.673Z,40.294